createdAt,value
2018-12-06T00:00:35.119Z,948.81
2018-12-06T00:01:35.121Z,948.66
2018-12-06T00:02:56.109Z,948.75
2018-12-06T00:03:35.096Z,948.70
2018-12-06T00:04:35.090Z,948.71
2018-12-06T00:05:35.090Z,948.66
2018-12-06T00:06:35.077Z,948.67
2018-12-06T00:07:35.108Z,948.69
2018-12-06T00:08:56.066Z,948.69
2018-12-06T00:09:35.075Z,948.78
2018-12-06T00:10:35.047Z,948.66
2018-12-06T00:11:35.036Z,948.62
2018-12-06T00:12:35.029Z,948.72
2018-12-06T00:13:35.024Z,948.76
2018-12-06T00:14:56.019Z,948.80
2018-12-06T00:15:35.008Z,948.91
2018-12-06T00:16:34.998Z,948.91
2018-12-06T00:17:35.012Z,948.83
2018-12-06T00:18:34.987Z,948.80
2018-12-06T00:19:34.978Z,948.75
2018-12-06T00:20:55.975Z,948.86
2018-12-06T00:21:34.965Z,948.84
2018-12-06T00:22:34.955Z,948.79
2018-12-06T00:23:34.948Z,948.76
2018-12-06T00:24:34.939Z,948.75
2018-12-06T00:25:34.932Z,948.76
2018-12-06T00:26:55.930Z,948.72
2018-12-06T00:27:34.914Z,948.71
2018-12-06T00:28:34.916Z,948.64
2018-12-06T00:29:34.903Z,948.58
2018-12-06T00:30:34.894Z,948.59
2018-12-06T00:31:34.888Z,948.56
2018-12-06T00:32:55.890Z,948.55
2018-12-06T00:33:34.887Z,948.62
2018-12-06T00:34:34.864Z,948.65
2018-12-06T00:35:34.856Z,948.67
2018-12-06T00:36:34.849Z,948.66
2018-12-06T00:37:34.841Z,948.62
2018-12-06T00:38:55.839Z,948.57
2018-12-06T00:39:34.827Z,948.49
2018-12-06T00:40:34.819Z,948.53
2018-12-06T00:41:34.813Z,948.56
2018-12-06T00:42:34.808Z,948.66
2018-12-06T00:43:34.817Z,948.70
2018-12-06T00:44:55.797Z,948.73
2018-12-06T00:45:34.781Z,948.67
2018-12-06T00:46:34.771Z,948.69
2018-12-06T00:47:34.759Z,948.72
2018-12-06T00:48:34.750Z,948.74
2018-12-06T00:49:34.751Z,948.67
2018-12-06T00:50:55.748Z,948.66
2018-12-06T00:51:34.748Z,948.63
2018-12-06T00:52:34.731Z,948.60
2018-12-06T00:53:34.736Z,948.56
2018-12-06T00:54:34.715Z,948.45
2018-12-06T00:55:34.705Z,948.41
2018-12-06T00:56:55.704Z,948.37
2018-12-06T00:57:34.707Z,948.45
2018-12-06T00:58:34.679Z,948.42
2018-12-06T00:59:34.676Z,948.28
2018-12-06T01:00:34.669Z,948.20
2018-12-06T01:01:34.664Z,948.19
2018-12-06T01:02:55.662Z,948.20
2018-12-06T01:03:34.650Z,948.26
2018-12-06T01:04:34.636Z,948.27
2018-12-06T01:05:34.632Z,948.17
2018-12-06T01:06:34.618Z,948.14
2018-12-06T01:07:34.614Z,948.07
2018-12-06T01:08:55.614Z,948.04
2018-12-06T01:09:34.599Z,948.12
2018-12-06T01:10:34.589Z,948.12
2018-12-06T01:11:34.580Z,948.11
2018-12-06T01:12:34.591Z,948.07
2018-12-06T01:13:34.590Z,948.06
2018-12-06T01:14:55.561Z,948.11
2018-12-06T01:15:34.555Z,948.14
2018-12-06T01:16:34.544Z,948.15
2018-12-06T01:17:34.555Z,948.24
2018-12-06T01:18:34.524Z,948.23
2018-12-06T01:19:34.531Z,948.20
2018-12-06T01:20:55.558Z,948.18
2018-12-06T01:21:34.601Z,948.29
2018-12-06T01:22:34.497Z,948.45
2018-12-06T01:23:34.496Z,948.49
2018-12-06T01:24:34.482Z,948.51
2018-12-06T01:25:34.473Z,948.49
2018-12-06T01:26:55.468Z,948.56
2018-12-06T01:27:34.458Z,948.59
2018-12-06T01:28:34.451Z,948.56
2018-12-06T01:29:34.469Z,948.57
2018-12-06T01:30:34.432Z,948.46
2018-12-06T01:31:34.429Z,948.42
2018-12-06T01:32:55.426Z,948.42
2018-12-06T01:33:34.428Z,948.48
2018-12-06T01:34:34.404Z,948.50
2018-12-06T01:35:34.392Z,948.57
2018-12-06T01:36:34.384Z,948.61
2018-12-06T01:37:34.394Z,948.62
2018-12-06T01:38:55.376Z,948.60
2018-12-06T01:39:34.361Z,948.63
2018-12-06T01:40:34.357Z,948.68
2018-12-06T01:41:34.354Z,948.81
2018-12-06T01:42:34.360Z,948.90
2018-12-06T01:43:34.331Z,948.96
2018-12-06T01:44:55.337Z,949.03
2018-12-06T01:45:34.324Z,949.05
2018-12-06T01:46:34.315Z,949.09
2018-12-06T01:47:34.303Z,949.13
2018-12-06T01:48:34.296Z,949.12
2018-12-06T01:49:34.291Z,949.26
2018-12-06T01:50:55.283Z,949.25
2018-12-06T01:51:34.280Z,949.25
2018-12-06T01:52:34.267Z,949.25
2018-12-06T01:53:34.264Z,949.17
2018-12-06T01:54:34.249Z,949.16
2018-12-06T01:55:34.246Z,949.12
2018-12-06T01:56:55.243Z,949.07
2018-12-06T01:57:34.226Z,949.01
2018-12-06T01:58:34.218Z,948.93
2018-12-06T01:59:34.215Z,948.89
2018-12-06T02:00:34.231Z,948.89
2018-12-06T02:01:34.209Z,948.86
2018-12-06T02:02:55.208Z,948.78
2018-12-06T02:03:34.175Z,948.77
2018-12-06T02:04:34.191Z,948.71
2018-12-06T02:05:34.170Z,948.64
2018-12-06T02:06:34.158Z,948.57
2018-12-06T02:07:34.152Z,948.51
2018-12-06T02:08:55.156Z,948.49
2018-12-06T02:09:34.140Z,948.40
2018-12-06T02:10:34.124Z,948.45
2018-12-06T02:11:34.127Z,948.45
2018-12-06T02:12:34.115Z,948.42
2018-12-06T02:13:34.113Z,948.52
2018-12-06T02:14:55.105Z,948.51
2018-12-06T02:15:34.090Z,948.50
2018-12-06T02:16:34.085Z,948.41
2018-12-06T02:17:34.077Z,948.33
2018-12-06T02:18:34.067Z,948.35
2018-12-06T02:19:34.059Z,948.35
2018-12-06T02:20:55.071Z,948.37
2018-12-06T02:21:34.050Z,948.36
2018-12-06T02:22:34.037Z,948.38
2018-12-06T02:23:34.033Z,948.34
2018-12-06T02:24:34.023Z,948.30
2018-12-06T02:25:34.041Z,948.26
2018-12-06T02:26:55.015Z,948.14
2018-12-06T02:27:34.025Z,948.12
2018-12-06T02:28:34.003Z,948.15
2018-12-06T02:29:33.985Z,948.23
2018-12-06T02:30:33.981Z,948.13
2018-12-06T02:31:33.971Z,948.13
2018-12-06T02:32:54.991Z,948.11
2018-12-06T02:33:33.959Z,948.12
2018-12-06T02:34:33.952Z,948.07
2018-12-06T02:35:33.937Z,947.99
2018-12-06T02:36:33.990Z,948.02
2018-12-06T02:37:33.926Z,947.93
2018-12-06T02:38:54.924Z,947.93
2018-12-06T02:39:33.909Z,947.85
2018-12-06T02:40:33.902Z,947.77
2018-12-06T02:41:33.891Z,947.71
2018-12-06T02:42:33.889Z,947.69
2018-12-06T02:43:33.878Z,947.70
2018-12-06T02:44:54.876Z,947.75
2018-12-06T02:45:33.863Z,947.73
2018-12-06T02:46:33.858Z,947.69
2018-12-06T02:47:33.848Z,947.65
2018-12-06T02:48:33.841Z,947.62
2018-12-06T02:49:33.835Z,947.63
2018-12-06T02:50:54.829Z,947.65
2018-12-06T02:51:33.821Z,947.60
2018-12-06T02:52:33.812Z,947.62
2018-12-06T02:53:33.813Z,947.62
2018-12-06T02:54:33.790Z,947.57
2018-12-06T02:55:33.790Z,947.55
2018-12-06T02:56:54.790Z,947.58
2018-12-06T02:57:33.771Z,947.61
2018-12-06T02:58:33.773Z,947.60
2018-12-06T02:59:33.757Z,947.60
2018-12-06T03:00:33.773Z,947.56
2018-12-06T03:01:33.741Z,947.55
2018-12-06T03:02:54.743Z,947.51
2018-12-06T03:03:33.732Z,947.52
2018-12-06T03:04:33.721Z,947.53
2018-12-06T03:05:35.659Z,947.53
2018-12-06T03:06:33.707Z,947.50
2018-12-06T03:07:33.697Z,947.48
2018-12-06T03:08:54.713Z,947.49
2018-12-06T03:09:33.683Z,947.49
2018-12-06T03:10:33.688Z,947.47
2018-12-06T03:11:33.662Z,947.48
2018-12-06T03:12:33.657Z,947.46
2018-12-06T03:13:33.649Z,947.49
2018-12-06T03:14:54.648Z,947.48
2018-12-06T03:15:33.632Z,947.48
2018-12-06T03:16:33.623Z,947.51
2018-12-06T03:17:33.616Z,947.50
2018-12-06T03:18:33.608Z,947.53
2018-12-06T03:19:33.623Z,947.59
2018-12-06T03:20:54.614Z,947.53
2018-12-06T03:21:33.593Z,947.56
2018-12-06T03:22:33.584Z,947.57
2018-12-06T03:23:33.569Z,947.55
2018-12-06T03:24:33.570Z,947.55
2018-12-06T03:25:33.551Z,947.58
2018-12-06T03:26:54.557Z,947.60
2018-12-06T03:27:33.538Z,947.65
2018-12-06T03:28:33.535Z,947.65
2018-12-06T03:29:33.525Z,947.70
2018-12-06T03:30:33.529Z,947.75
2018-12-06T03:31:33.513Z,947.79
2018-12-06T03:32:54.514Z,947.88
2018-12-06T03:33:33.495Z,947.90
2018-12-06T03:34:33.502Z,947.94
2018-12-06T03:35:33.477Z,948.04
2018-12-06T03:36:33.470Z,948.13
2018-12-06T03:37:33.464Z,948.19
2018-12-06T03:38:54.462Z,948.31
2018-12-06T03:39:33.456Z,948.32
2018-12-06T03:40:33.438Z,948.32
2018-12-06T03:41:33.448Z,948.33
2018-12-06T03:42:33.423Z,948.36
2018-12-06T03:43:33.430Z,948.37
2018-12-06T03:44:54.418Z,948.33
2018-12-06T03:45:33.403Z,948.38
2018-12-06T03:46:33.400Z,948.45
2018-12-06T03:47:33.391Z,948.53
2018-12-06T03:48:33.378Z,948.58
2018-12-06T03:49:33.375Z,948.55
2018-12-06T03:50:54.380Z,948.57
2018-12-06T03:51:33.361Z,948.57
2018-12-06T03:52:33.351Z,948.52
2018-12-06T03:53:33.344Z,948.50
2018-12-06T03:54:33.333Z,948.57
2018-12-06T03:55:33.326Z,948.51
2018-12-06T03:56:54.326Z,948.58
2018-12-06T03:57:33.318Z,948.69
2018-12-06T03:58:33.300Z,948.60
2018-12-06T03:59:33.293Z,948.59
2018-12-06T04:00:33.318Z,948.56
2018-12-06T04:01:33.283Z,948.53
2018-12-06T04:02:54.286Z,948.59
2018-12-06T04:03:33.288Z,948.61
2018-12-06T04:04:33.260Z,948.64
2018-12-06T04:05:33.251Z,948.61
2018-12-06T04:06:33.256Z,948.60
2018-12-06T04:07:33.234Z,948.58
2018-12-06T04:08:54.236Z,948.58
2018-12-06T04:09:33.221Z,948.60
2018-12-06T04:10:33.220Z,948.64
2018-12-06T04:11:33.202Z,948.64
2018-12-06T04:12:33.214Z,948.59
2018-12-06T04:13:33.187Z,948.65
2018-12-06T04:14:54.186Z,948.63
2018-12-06T04:15:33.171Z,948.63
2018-12-06T04:16:33.166Z,948.65
2018-12-06T04:17:33.159Z,948.63
2018-12-06T04:18:33.162Z,948.66
2018-12-06T04:19:33.148Z,948.60
2018-12-06T04:20:54.145Z,948.61
2018-12-06T04:21:33.129Z,948.63
2018-12-06T04:22:33.124Z,948.54
2018-12-06T04:23:33.119Z,948.57
2018-12-06T04:24:33.130Z,948.55
2018-12-06T04:25:33.105Z,948.50
2018-12-06T04:26:54.098Z,948.51
2018-12-06T04:27:33.081Z,948.56
2018-12-06T04:28:33.074Z,948.52
2018-12-06T04:29:33.067Z,948.50
2018-12-06T04:30:33.062Z,948.50
2018-12-06T04:31:33.052Z,948.51
2018-12-06T04:32:54.054Z,948.47
2018-12-06T04:33:33.038Z,948.49
2018-12-06T04:34:33.026Z,948.51
2018-12-06T04:35:33.020Z,948.53
2018-12-06T04:36:33.013Z,948.51
2018-12-06T04:37:33.004Z,948.50
2018-12-06T04:38:54.017Z,948.51
2018-12-06T04:39:32.993Z,948.55
2018-12-06T04:40:32.983Z,948.58
2018-12-06T04:41:32.973Z,948.58
2018-12-06T04:42:32.971Z,948.60
2018-12-06T04:43:32.960Z,948.53
2018-12-06T04:44:53.960Z,948.49
2018-12-06T04:45:32.947Z,948.47
2018-12-06T04:46:32.932Z,948.46
2018-12-06T04:47:32.956Z,948.48
2018-12-06T04:48:32.936Z,948.48
2018-12-06T04:49:32.941Z,948.49
2018-12-06T04:50:53.910Z,948.53
2018-12-06T04:51:32.959Z,948.50
2018-12-06T04:52:33.595Z,948.49
2018-12-06T04:53:32.934Z,948.47
2018-12-06T04:54:32.906Z,948.45
2018-12-06T04:55:32.907Z,948.54
2018-12-06T04:56:53.870Z,948.53
2018-12-06T04:57:32.917Z,948.51
2018-12-06T04:58:32.841Z,948.52
2018-12-06T04:59:32.831Z,948.54
2018-12-06T05:00:32.827Z,948.50
2018-12-06T05:01:32.819Z,948.51
2018-12-06T05:02:53.828Z,948.47
2018-12-06T05:03:32.804Z,948.47
2018-12-06T05:04:32.797Z,948.52
2018-12-06T05:05:32.789Z,948.49
2018-12-06T05:06:32.781Z,948.54
2018-12-06T05:07:32.794Z,948.57
2018-12-06T05:08:53.769Z,948.53
2018-12-06T05:09:32.758Z,948.54
2018-12-06T05:10:32.749Z,948.52
2018-12-06T05:11:32.750Z,948.53
2018-12-06T05:12:32.734Z,948.57
2018-12-06T05:13:32.727Z,948.57
2018-12-06T05:14:53.724Z,948.57
2018-12-06T05:15:32.709Z,948.57
2018-12-06T05:16:32.702Z,948.55
2018-12-06T05:17:32.696Z,948.59
2018-12-06T05:18:32.691Z,948.63
2018-12-06T05:19:32.802Z,948.60
2018-12-06T05:20:53.679Z,948.61
2018-12-06T05:21:32.786Z,948.62
2018-12-06T05:22:32.695Z,948.65
2018-12-06T05:23:33.580Z,948.65
2018-12-06T05:24:32.677Z,948.65
2018-12-06T05:25:32.630Z,948.65
2018-12-06T05:26:53.629Z,948.68
2018-12-06T05:27:32.621Z,948.72
2018-12-06T05:28:32.610Z,948.69
2018-12-06T05:29:32.602Z,948.72
2018-12-06T05:30:32.597Z,948.73
2018-12-06T05:31:32.592Z,948.69
2018-12-06T05:32:53.591Z,948.66
2018-12-06T05:33:32.575Z,948.68
2018-12-06T05:34:32.564Z,948.63
2018-12-06T05:35:32.604Z,948.67
2018-12-06T05:36:32.558Z,948.66
2018-12-06T05:37:32.540Z,948.70
2018-12-06T05:38:53.539Z,948.74
2018-12-06T05:39:33.607Z,948.75
2018-12-06T05:40:32.523Z,948.75
2018-12-06T05:41:32.514Z,948.71
2018-12-06T05:42:32.504Z,948.76
2018-12-06T05:43:32.497Z,948.73
2018-12-06T05:44:53.527Z,948.81
2018-12-06T05:45:32.482Z,948.76
2018-12-06T05:46:32.469Z,948.78
2018-12-06T05:47:32.465Z,948.84
2018-12-06T05:48:32.453Z,948.79
2018-12-06T05:49:32.448Z,948.81
2018-12-06T05:50:53.451Z,948.80
2018-12-06T05:51:32.435Z,948.79
2018-12-06T05:52:32.430Z,948.77
2018-12-06T05:53:32.435Z,948.82
2018-12-06T05:54:32.410Z,948.75
2018-12-06T05:55:32.404Z,948.83
2018-12-06T05:56:53.398Z,948.76
2018-12-06T05:57:32.385Z,948.80
2018-12-06T05:58:32.382Z,948.80
2018-12-06T05:59:32.398Z,948.80
2018-12-06T06:00:32.365Z,948.85
2018-12-06T06:01:32.392Z,948.74
2018-12-06T06:02:53.366Z,948.83
2018-12-06T06:03:32.381Z,948.74
2018-12-06T06:04:32.359Z,948.83
2018-12-06T06:05:32.328Z,948.79
2018-12-06T06:06:32.393Z,948.80
2018-12-06T06:07:32.324Z,948.74
2018-12-06T06:08:53.307Z,948.81
2018-12-06T06:09:32.295Z,948.77
2018-12-06T06:10:32.289Z,948.81
2018-12-06T06:11:32.288Z,948.81
2018-12-06T06:12:32.288Z,948.82
2018-12-06T06:13:32.265Z,948.85
2018-12-06T06:14:53.259Z,948.80
2018-12-06T06:15:32.250Z,948.83
2018-12-06T06:16:32.287Z,948.81
2018-12-06T06:17:32.233Z,948.75
2018-12-06T06:18:32.232Z,948.84
2018-12-06T06:19:32.216Z,948.88
2018-12-06T06:20:53.215Z,948.82
2018-12-06T06:21:32.203Z,948.87
2018-12-06T06:22:32.225Z,948.86
2018-12-06T06:23:32.194Z,948.83
2018-12-06T06:24:32.178Z,948.85
2018-12-06T06:25:32.177Z,948.84
2018-12-06T06:26:53.216Z,948.86
2018-12-06T06:27:32.159Z,948.85
2018-12-06T06:28:32.166Z,948.84
2018-12-06T06:29:32.144Z,948.89
2018-12-06T06:30:32.132Z,948.92
2018-12-06T06:31:32.131Z,948.92
2018-12-06T06:32:53.185Z,948.93
2018-12-06T06:33:32.116Z,948.98
2018-12-06T06:34:32.102Z,948.92
2018-12-06T06:35:32.168Z,948.96
2018-12-06T06:36:32.089Z,948.97
2018-12-06T06:37:32.081Z,948.99
2018-12-06T06:38:53.078Z,949.02
2018-12-06T06:39:32.086Z,949.02
2018-12-06T06:40:32.061Z,948.98
2018-12-06T06:41:32.052Z,949.07
2018-12-06T06:42:32.051Z,949.08
2018-12-06T06:43:32.055Z,949.07
2018-12-06T06:44:53.038Z,949.10
2018-12-06T06:49:54.380Z,949.22
2018-12-06T06:51:01.362Z,949.20
2018-12-06T06:52:45.900Z,949.24
2018-12-06T06:53:45.892Z,949.17
2018-12-06T06:54:45.890Z,949.17
2018-12-06T06:55:45.878Z,949.18
2018-12-06T06:56:45.874Z,949.21
2018-12-06T06:57:45.864Z,949.21
2018-12-06T06:58:45.857Z,949.20
2018-12-06T06:59:45.850Z,949.24
2018-12-06T07:00:45.850Z,949.20
2018-12-06T07:01:45.834Z,949.22
2018-12-06T07:02:45.828Z,949.18
2018-12-06T07:03:45.816Z,949.20
2018-12-06T07:04:45.819Z,949.24
2018-12-06T07:05:45.805Z,949.24
2018-12-06T07:06:45.801Z,949.29
2018-12-06T07:07:45.787Z,949.27
2018-12-06T07:08:45.785Z,949.31
2018-12-06T07:09:45.789Z,949.27
2018-12-06T07:10:47.298Z,949.31
2018-12-06T07:11:45.759Z,949.28
2018-12-06T07:12:45.752Z,949.36
2018-12-06T07:13:45.744Z,949.29
2018-12-06T07:14:45.736Z,949.34
2018-12-06T07:15:45.726Z,949.36
2018-12-06T07:16:45.722Z,949.36
2018-12-06T07:17:45.716Z,949.36
2018-12-06T07:18:45.709Z,949.39
2018-12-06T07:19:45.700Z,949.42
2018-12-06T07:20:45.726Z,949.41
2018-12-06T07:21:45.681Z,949.45
2018-12-06T07:22:45.669Z,949.43
2018-12-06T07:23:45.661Z,949.48
2018-12-06T07:24:45.663Z,949.49
2018-12-06T07:25:46.496Z,949.50
2018-12-06T07:26:45.705Z,949.49
2018-12-06T07:27:46.385Z,949.51
2018-12-06T07:28:45.633Z,949.49
2018-12-06T07:29:46.455Z,949.50
2018-12-06T07:30:45.621Z,949.54
2018-12-06T07:31:45.607Z,949.60
2018-12-06T07:32:45.603Z,949.56
2018-12-06T07:33:45.598Z,949.58
2018-12-06T07:34:45.594Z,949.59
2018-12-06T07:35:45.581Z,949.61
2018-12-06T07:36:45.571Z,949.62
2018-12-06T07:37:45.596Z,949.63
2018-12-06T07:38:45.567Z,949.64
2018-12-06T07:39:45.554Z,949.64
2018-12-06T07:40:48.041Z,949.65
2018-12-06T07:41:45.540Z,949.60
2018-12-06T07:42:45.537Z,949.60
2018-12-06T07:43:45.523Z,949.63
2018-12-06T07:44:45.518Z,949.66
2018-12-06T07:45:45.511Z,949.66
2018-12-06T07:46:45.492Z,949.72
2018-12-06T07:47:45.489Z,949.77
2018-12-06T07:48:45.485Z,949.73
2018-12-06T07:49:45.480Z,949.76
2018-12-06T07:50:45.477Z,949.82
2018-12-06T07:51:45.466Z,949.78
2018-12-06T07:52:45.459Z,949.82
2018-12-06T07:53:45.518Z,949.84
2018-12-06T07:54:45.445Z,949.84
2018-12-06T07:55:45.437Z,949.88
2018-12-06T07:56:45.431Z,949.94
2018-12-06T07:57:45.413Z,949.93
2018-12-06T07:58:45.446Z,949.97
2018-12-06T07:59:45.402Z,949.98
2018-12-06T08:00:45.402Z,950.03
2018-12-06T08:01:45.399Z,950.01
2018-12-06T08:02:45.391Z,950.05
2018-12-06T08:03:45.383Z,950.06
2018-12-06T08:04:45.368Z,950.08
2018-12-06T08:05:45.367Z,950.12
2018-12-06T08:06:45.359Z,950.11
2018-12-06T08:07:45.353Z,950.12
2018-12-06T08:08:45.346Z,950.20
2018-12-06T08:09:45.340Z,950.22
2018-12-06T08:10:45.334Z,950.26
2018-12-06T08:11:45.326Z,950.24
2018-12-06T08:12:45.322Z,950.30
2018-12-06T08:13:45.312Z,950.34
2018-12-06T08:14:45.306Z,950.34
2018-12-06T08:15:45.302Z,950.35
2018-12-06T08:16:45.295Z,950.32
2018-12-06T08:17:45.289Z,950.38
2018-12-06T08:18:45.280Z,950.38
2018-12-06T08:19:45.271Z,950.43
2018-12-06T08:20:45.267Z,950.49
2018-12-06T08:21:45.972Z,950.44
2018-12-06T08:22:45.258Z,950.45
2018-12-06T08:23:45.243Z,950.50
2018-12-06T08:24:45.243Z,950.54
2018-12-06T08:25:45.234Z,950.55
2018-12-06T08:26:45.226Z,950.59
2018-12-06T08:27:45.222Z,950.62
2018-12-06T08:28:45.216Z,950.59
2018-12-06T08:29:45.207Z,950.58
2018-12-06T08:30:45.200Z,950.62
2018-12-06T08:31:46.373Z,950.66
2018-12-06T08:32:45.186Z,950.65
2018-12-06T08:33:45.180Z,950.66
2018-12-06T08:34:45.172Z,950.70
2018-12-06T08:35:45.169Z,950.69
2018-12-06T08:36:45.162Z,950.73
2018-12-06T08:37:45.153Z,950.75
2018-12-06T08:38:45.213Z,950.73
2018-12-06T08:39:45.144Z,950.71
2018-12-06T08:40:45.136Z,950.76
2018-12-06T08:41:45.130Z,950.78
2018-12-06T08:42:45.885Z,950.80
2018-12-06T08:43:45.119Z,950.80
2018-12-06T08:44:45.106Z,950.87
2018-12-06T08:45:45.119Z,950.82
2018-12-06T08:46:45.099Z,950.82
2018-12-06T08:47:45.093Z,950.84
2018-12-06T08:48:45.087Z,950.81
2018-12-06T08:49:45.081Z,950.76
2018-12-06T08:50:45.079Z,950.77
2018-12-06T08:51:45.083Z,950.78
2018-12-06T08:52:45.065Z,950.80
2018-12-06T08:53:45.059Z,950.79
2018-12-06T08:54:45.051Z,950.84
2018-12-06T08:55:45.044Z,950.84
2018-12-06T08:56:45.037Z,950.88
2018-12-06T08:57:45.038Z,950.88
2018-12-06T08:58:45.029Z,950.93
2018-12-06T08:59:45.022Z,950.88
2018-12-06T09:00:45.015Z,950.91
2018-12-06T09:01:45.005Z,950.91
2018-12-06T09:02:45.003Z,950.90
2018-12-06T09:03:44.994Z,950.91
2018-12-06T09:04:44.996Z,950.93
2018-12-06T09:05:44.982Z,950.90
2018-12-06T09:06:44.976Z,950.93
2018-12-06T09:07:44.971Z,950.93
2018-12-06T09:08:44.963Z,950.91
2018-12-06T09:09:44.961Z,950.82
2018-12-06T09:10:51.362Z,950.85
2018-12-06T09:11:44.948Z,950.85
2018-12-06T09:12:44.941Z,950.85
2018-12-06T09:13:44.937Z,950.90
2018-12-06T09:14:44.940Z,950.87
2018-12-06T09:15:44.927Z,950.92
2018-12-06T09:16:44.923Z,950.93
2018-12-06T09:17:44.916Z,950.97
2018-12-06T09:18:44.912Z,951.02
2018-12-06T09:19:44.910Z,951.03
2018-12-06T09:20:44.903Z,951.06
2018-12-06T09:21:44.901Z,951.09
2018-12-06T09:22:44.887Z,951.10
2018-12-06T09:23:44.881Z,951.10
2018-12-06T09:24:44.877Z,951.07
2018-12-06T09:25:46.359Z,951.16
2018-12-06T09:26:44.867Z,951.12
2018-12-06T09:27:44.860Z,951.20
2018-12-06T09:28:44.859Z,951.21
2018-12-06T09:29:44.848Z,951.23
2018-12-06T09:30:44.845Z,951.23
2018-12-06T09:31:44.842Z,951.27
2018-12-06T09:32:44.834Z,951.26
2018-12-06T09:33:44.827Z,951.28
2018-12-06T09:34:44.829Z,951.23
2018-12-06T09:35:44.828Z,951.24
2018-12-06T09:36:45.425Z,951.24
2018-12-06T09:37:44.836Z,951.28
2018-12-06T09:38:44.814Z,951.27
2018-12-06T09:39:44.799Z,951.27
2018-12-06T09:40:44.790Z,951.24
2018-12-06T09:41:44.799Z,951.29
2018-12-06T09:42:44.781Z,951.30
2018-12-06T09:43:44.775Z,951.25
2018-12-06T09:44:44.770Z,951.15
2018-12-06T09:45:44.769Z,951.16
2018-12-06T09:46:44.758Z,951.20
2018-12-06T09:47:44.753Z,951.17
2018-12-06T09:48:44.749Z,951.13
2018-12-06T09:49:44.746Z,951.19
2018-12-06T09:50:44.738Z,951.22
2018-12-06T09:51:44.733Z,951.20
2018-12-06T09:52:44.725Z,951.23
2018-12-06T09:53:44.723Z,951.21
2018-12-06T09:54:44.717Z,951.12
2018-12-06T09:55:44.714Z,951.20
2018-12-06T09:56:44.710Z,951.18
2018-12-06T09:57:44.704Z,951.10
2018-12-06T09:58:44.705Z,951.08
2018-12-06T09:59:44.692Z,951.06
2018-12-06T10:00:44.686Z,951.03
2018-12-06T10:01:44.682Z,951.05
2018-12-06T10:02:44.678Z,951.05
2018-12-06T10:03:44.673Z,951.05
2018-12-06T10:04:44.669Z,951.05
2018-12-06T10:05:44.651Z,951.12
2018-12-06T10:06:44.660Z,951.14
2018-12-06T10:07:44.651Z,951.14
2018-12-06T10:08:44.648Z,951.13
2018-12-06T10:09:44.644Z,951.07
2018-12-06T10:10:44.640Z,951.04
2018-12-06T10:11:44.633Z,951.01
2018-12-06T10:12:44.638Z,951.05
2018-12-06T10:13:44.623Z,951.03
2018-12-06T10:14:44.617Z,951.05
2018-12-06T10:15:44.608Z,951.04
2018-12-06T10:16:44.611Z,951.10
2018-12-06T10:17:44.602Z,951.13
2018-12-06T10:18:44.597Z,951.12
2018-12-06T10:19:44.591Z,951.16
2018-12-06T10:20:44.586Z,951.21
2018-12-06T10:21:44.584Z,951.28
2018-12-06T10:22:44.576Z,951.32
2018-12-06T10:23:44.575Z,951.28
2018-12-06T10:24:44.563Z,951.26
2018-12-06T10:25:44.580Z,951.20
2018-12-06T10:26:44.556Z,951.19
2018-12-06T10:27:44.549Z,951.22
2018-12-06T10:28:44.547Z,951.21
2018-12-06T10:29:44.541Z,951.20
2018-12-06T10:30:44.536Z,951.18
2018-12-06T10:31:44.531Z,951.16
2018-12-06T10:32:44.578Z,951.31
2018-12-06T10:33:44.522Z,951.29
2018-12-06T10:34:45.442Z,951.36
2018-12-06T10:35:44.510Z,951.40
2018-12-06T10:36:44.511Z,951.34
2018-12-06T10:37:44.502Z,951.36
2018-12-06T10:38:44.519Z,951.35
2018-12-06T10:39:44.532Z,951.28
2018-12-06T10:40:44.489Z,951.25
2018-12-06T10:41:44.485Z,951.23
2018-12-06T10:42:44.496Z,951.21
2018-12-06T10:43:44.476Z,951.18
2018-12-06T10:44:44.471Z,951.19
2018-12-06T10:45:44.459Z,951.20
2018-12-06T10:46:44.463Z,951.14
2018-12-06T10:47:44.455Z,951.10
2018-12-06T10:48:44.453Z,951.09
2018-12-06T10:49:44.435Z,951.09
2018-12-06T10:50:44.443Z,951.08
2018-12-06T10:51:44.435Z,951.10
2018-12-06T10:52:44.433Z,951.13
2018-12-06T10:53:44.433Z,951.11
2018-12-06T10:54:44.429Z,951.07
2018-12-06T10:55:44.420Z,951.06
2018-12-06T10:56:44.411Z,951.09
2018-12-06T10:57:44.412Z,951.08
2018-12-06T10:58:44.405Z,951.08
2018-12-06T10:59:44.473Z,951.10
2018-12-06T11:00:44.399Z,951.16
2018-12-06T11:01:44.390Z,951.13
2018-12-06T11:02:44.386Z,951.18
2018-12-06T11:03:44.429Z,951.15
2018-12-06T11:04:44.374Z,951.11
2018-12-06T11:05:44.372Z,951.11
2018-12-06T11:06:44.368Z,951.03
2018-12-06T11:07:44.362Z,951.00
2018-12-06T11:08:44.356Z,951.02
2018-12-06T11:09:44.353Z,950.99
2018-12-06T11:10:44.354Z,950.94
2018-12-06T11:11:44.333Z,950.98
2018-12-06T11:12:44.336Z,950.98
2018-12-06T11:13:44.333Z,951.06
2018-12-06T11:14:44.326Z,951.00
2018-12-06T11:15:44.321Z,951.06
2018-12-06T11:16:44.308Z,951.04
2018-12-06T11:17:44.319Z,951.02
2018-12-06T11:18:44.305Z,950.98
2018-12-06T11:19:44.303Z,950.96
2018-12-06T11:20:44.295Z,950.92
2018-12-06T11:21:44.299Z,950.94
2018-12-06T11:22:44.286Z,950.93
2018-12-06T11:23:44.279Z,950.85
2018-12-06T11:24:44.276Z,950.84
2018-12-06T11:25:44.269Z,950.85
2018-12-06T11:26:44.278Z,950.82
2018-12-06T11:27:44.256Z,950.80
2018-12-06T11:28:44.260Z,950.81
2018-12-06T11:29:44.251Z,950.77
2018-12-06T11:30:44.242Z,950.82
2018-12-06T11:31:44.237Z,950.75
2018-12-06T11:32:44.232Z,950.87
2018-12-06T11:33:44.230Z,950.86
2018-12-06T11:34:44.223Z,950.87
2018-12-06T11:35:44.217Z,950.87
2018-12-06T11:36:44.218Z,950.88
2018-12-06T11:37:44.205Z,950.88
2018-12-06T11:38:44.202Z,950.88
2018-12-06T11:39:44.196Z,950.82
2018-12-06T11:40:44.190Z,950.82
2018-12-06T11:41:44.184Z,950.82
2018-12-06T11:42:44.182Z,950.81
2018-12-06T11:43:44.187Z,950.80
2018-12-06T11:44:44.170Z,950.75
2018-12-06T11:45:44.165Z,950.83
2018-12-06T11:46:44.154Z,950.80
2018-12-06T11:47:44.151Z,950.79
2018-12-06T11:48:44.148Z,950.82
2018-12-06T11:49:44.142Z,950.76
2018-12-06T11:50:44.135Z,950.83
2018-12-06T11:51:44.123Z,950.75
2018-12-06T11:52:44.123Z,950.74
2018-12-06T11:53:44.157Z,950.80
2018-12-06T11:55:44.109Z,950.81
2018-12-06T11:56:44.107Z,950.82
2018-12-06T11:57:44.101Z,950.80
2018-12-06T11:58:44.100Z,950.83
2018-12-06T11:59:44.141Z,950.79
2018-12-06T12:00:44.076Z,950.82
2018-12-06T12:02:09.900Z,950.80
2018-12-06T12:02:44.077Z,950.87
2018-12-06T12:03:44.065Z,950.90
2018-12-06T12:04:44.112Z,950.96
2018-12-06T12:05:44.055Z,950.93
2018-12-06T12:06:44.047Z,950.94
2018-12-06T12:08:05.046Z,950.95
2018-12-06T12:08:44.033Z,950.99
2018-12-06T12:09:44.035Z,950.96
2018-12-06T12:10:44.031Z,951.03
2018-12-06T12:11:44.021Z,951.02
2018-12-06T12:12:44.012Z,951.01
2018-12-06T12:14:05.019Z,951.04
2018-12-06T12:14:44.001Z,951.05
2018-12-06T12:15:43.994Z,951.06
2018-12-06T12:16:43.989Z,951.10
2018-12-06T12:17:43.994Z,951.07
2018-12-06T12:18:43.993Z,951.09
2018-12-06T12:20:05.518Z,951.10
2018-12-06T12:20:43.991Z,951.14
2018-12-06T12:21:43.964Z,951.19
2018-12-06T12:22:43.958Z,951.18
2018-12-06T12:23:43.952Z,951.17
2018-12-06T12:24:43.948Z,951.18
2018-12-06T12:26:04.951Z,951.20
2018-12-06T12:26:43.939Z,951.15
2018-12-06T12:27:43.932Z,951.16
2018-12-06T12:28:43.931Z,951.13
2018-12-06T12:29:43.929Z,951.08
2018-12-06T12:30:43.919Z,951.08
2018-12-06T12:32:04.916Z,951.09
2018-12-06T12:32:43.907Z,951.07
2018-12-06T12:33:43.898Z,951.11
2018-12-06T12:34:43.895Z,951.09